Weather at Coahuayana Airport

Public forecast

Using degrees Celsius for public forecast. Weather courtesy of forecast.io.

Closest aviation weather report (METAR) to Coahuayana Airport

Report is more than 6 hours old.

Closest report is Licenciado Miguel de la Madrid Airport, 36.0 nm (66.7 km) N. Retrieved 2021/01/28 00:50 UTC (7 hours ago):

MMIA 280050Z 00000KT 8SM SKC 22/19 A2998 RMK FU S

Closest aviation forecast (TAF) to Coahuayana Airport

Closest forecast is Licenciado Miguel de la Madrid Airport, 36.0 nm (66.7 km) N. Retrieved 2021/01/28 18:47 UTC (0 seconds ago):

TAF MMIA 271646Z 2718/2818 23010KT P6SM SCT250 FM280300 03005KT P6SM SCT015 TEMPO 2803/2807 3SM BR BKN010 FM281000 05005KT 4SM BR SCT250 FM281600 08010KT P6SM SCT250